sensor_id;sensor_type;location;lat;lon;timestamp;P1;durP1;ratioP1;P2;durP2;ratioP2
8017;SDS011;4054;52.666;4.770;2023-05-14T00:00:03;66.85;;;61.65;;
8017;SDS011;4054;52.666;4.770;2023-05-14T00:00:36;65.85;;;60.95;;
8017;SDS011;4054;52.666;4.770;2023-05-14T00:01:09;66.82;;;61.45;;
8017;SDS011;4054;52.666;4.770;2023-05-14T00:01:40;67.32;;;61.08;;
8017;SDS011;4054;52.666;4.770;2023-05-14T00:02:12;67.47;;;62.10;;
8017;SDS011;4054;52.666;4.770;2023-05-14T00:02:45;66.38;;;60.97;;
8017;SDS011;4054;52.666;4.770;2023-05-14T00:03:17;66.07;;;60.97;;
8017;SDS011;4054;52.666;4.770;2023-05-14T00:03:49;66.88;;;61.05;;
8017;SDS011;4054;52.666;4.770;2023-05-14T00:04:21;65.80;;;60.60;;
8017;SDS011;4054;52.666;4.770;2023-05-14T00:04:53;66.43;;;60.83;;
8017;SDS011;4054;52.666;4.770;2023-05-14T00:05:25;65.85;;;60.85;;
8017;SDS011;4054;52.666;4.770;2023-05-14T00:05:58;66.45;;;61.13;;
8017;SDS011;4054;52.666;4.770;2023-05-14T00:06:31;68.55;;;63.08;;
8017;SDS011;4054;52.666;4.770;2023-05-14T00:07:03;67.00;;;61.53;;
8017;SDS011;4054;52.666;4.770;2023-05-14T00:07:36;66.80;;;61.30;;
8017;SDS011;4054;52.666;4.770;2023-05-14T00:08:07;66.22;;;61.08;;
8017;SDS011;4054;52.666;4.770;2023-05-14T00:08:40;66.93;;;61.33;;
8017;SDS011;4054;52.666;4.770;2023-05-14T00:09:13;66.72;;;61.45;;
8017;SDS011;4054;52.666;4.770;2023-05-14T00:09:45;66.95;;;61.67;;
8017;SDS011;4054;52.666;4.770;2023-05-14T00:10:16;65.82;;;60.72;;
8017;SDS011;4054;52.666;4.770;2023-05-14T00:10:51;65.05;;;59.95;;
8017;SDS011;4054;52.666;4.770;2023-05-14T00:11:22;67.78;;;62.08;;
8017;SDS011;4054;52.666;4.770;2023-05-14T00:11:54;65.68;;;60.60;;
8017;SDS011;4054;52.666;4.770;2023-05-14T00:12:27;66.10;;;61.00;;
8017;SDS011;4054;52.666;4.770;2023-05-14T00:13:00;65.40;;;60.40;;
8017;SDS011;4054;52.666;4.770;2023-05-14T00:13:32;66.68;;;61.50;;
8017;SDS011;4054;52.666;4.770;2023-05-14T00:14:04;66.45;;;60.97;;
8017;SDS011;4054;52.666;4.770;2023-05-14T00:14:36;65.35;;;60.35;;
8017;SDS011;4054;52.666;4.770;2023-05-14T00:15:08;65.63;;;60.63;;
8017;SDS011;4054;52.666;4.770;2023-05-14T00:15:41;66.10;;;60.95;;
8017;SDS011;4054;52.666;4.770;2023-05-14T00:16:12;65.78;;;60.83;;
8017;SDS011;4054;52.666;4.770;2023-05-14T00:16:44;66.10;;;61.10;;
8017;SDS011;4054;52.666;4.770;2023-05-14T00:17:17;67.45;;;61.47;;
8017;SDS011;4054;52.666;4.770;2023-05-14T00:17:48;66.07;;;60.90;;
8017;SDS011;4054;52.666;4.770;2023-05-14T00:18:20;65.35;;;60.38;;
8017;SDS011;4054;52.666;4.770;2023-05-14T00:18:53;65.03;;;60.15;;
8017;SDS011;4054;52.666;4.770;2023-05-14T00:19:25;66.47;;;60.95;;
8017;SDS011;4054;52.666;4.770;2023-05-14T00:19:56;66.18;;;60.95;;
8017;SDS011;4054;52.666;4.770;2023-05-14T00:20:29;66.03;;;60.95;;
8017;SDS011;4054;52.666;4.770;2023-05-14T00:21:02;66.30;;;61.17;;
8017;SDS011;4054;52.666;4.770;2023-05-14T00:21:34;65.28;;;60.22;;
8017;SDS011;4054;52.666;4.770;2023-05-14T00:22:05;66.40;;;61.20;;
8017;SDS011;4054;52.666;4.770;2023-05-14T00:22:38;66.10;;;61.00;;
8017;SDS011;4054;52.666;4.770;2023-05-14T00:23:10;67.03;;;61.67;;
8017;SDS011;4054;52.666;4.770;2023-05-14T00:23:43;66.10;;;60.85;;
8017;SDS011;4054;52.666;4.770;2023-05-14T00:24:16;66.20;;;60.90;;
8017;SDS011;4054;52.666;4.770;2023-05-14T00:24:47;66.45;;;61.35;;
8017;SDS011;4054;52.666;4.770;2023-05-14T00:25:19;65.97;;;61.05;;
8017;SDS011;4054;52.666;4.770;2023-05-14T00:25:51;66.60;;;61.10;;
8017;SDS011;4054;52.666;4.770;2023-05-14T00:26:23;65.93;;;60.92;;
8017;SDS011;4054;52.666;4.770;2023-05-14T00:26:55;67.05;;;61.25;;
8017;SDS011;4054;52.666;4.770;2023-05-14T00:27:26;66.80;;;61.53;;
8017;SDS011;4054;52.666;4.770;2023-05-14T00:27:59;65.80;;;60.90;;
8017;SDS011;4054;52.666;4.770;2023-05-14T00:28:31;65.63;;;60.63;;
8017;SDS011;4054;52.666;4.770;2023-05-14T00:29:02;66.80;;;61.70;;
8017;SDS011;4054;52.666;4.770;2023-05-14T00:29:35;66.10;;;61.17;;
8017;SDS011;4054;52.666;4.770;2023-05-14T00:30:07;65.82;;;60.72;;
8017;SDS011;4054;52.666;4.770;2023-05-14T00:30:39;65.57;;;60.42;;
8017;SDS011;4054;52.666;4.770;2023-05-14T00:31:12;66.10;;;60.75;;
8017;SDS011;4054;52.666;4.770;2023-05-14T00:31:44;66.18;;;61.08;;
8017;SDS011;4054;52.666;4.770;2023-05-14T00:32:16;65.90;;;60.90;;
8017;SDS011;4054;52.666;4.770;2023-05-14T00:32:48;65.68;;;60.67;;
8017;SDS011;4054;52.666;4.770;2023-05-14T00:33:20;66.00;;;60.75;;
8017;SDS011;4054;52.666;4.770;2023-05-14T00:33:52;66.15;;;60.85;;
8017;SDS011;4054;52.666;4.770;2023-05-14T00:34:24;66.50;;;61.03;;
8017;SDS011;4054;52.666;4.770;2023-05-14T00:34:56;65.60;;;60.53;;
8017;SDS011;4054;52.666;4.770;2023-05-14T00:35:28;65.75;;;60.80;;
8017;SDS011;4054;52.666;4.770;2023-05-14T00:36:00;65.20;;;60.30;;
8017;SDS011;4054;52.666;4.770;2023-05-14T00:36:33;66.45;;;61.40;;
8017;SDS011;4054;52.666;4.770;2023-05-14T00:37:05;65.80;;;60.75;;
8017;SDS011;4054;52.666;4.770;2023-05-14T00:37:36;66.60;;;61.42;;
8017;SDS011;4054;52.666;4.770;2023-05-14T00:38:09;66.70;;;61.45;;
8017;SDS011;4054;52.666;4.770;2023-05-14T00:38:48;67.72;;;62.17;;
8017;SDS011;4054;52.666;4.770;2023-05-14T00:39:21;66.20;;;60.88;;
8017;SDS011;4054;52.666;4.770;2023-05-14T00:39:52;66.95;;;61.45;;
8017;SDS011;4054;52.666;4.770;2023-05-14T00:40:25;65.47;;;60.42;;
8017;SDS011;4054;52.666;4.770;2023-05-14T00:40:58;65.95;;;60.75;;
8017;SDS011;4054;52.666;4.770;2023-05-14T00:41:29;66.78;;;61.15;;
8017;SDS011;4054;52.666;4.770;2023-05-14T00:42:01;65.88;;;60.95;;
8017;SDS011;4054;52.666;4.770;2023-05-14T00:42:33;67.45;;;61.70;;
8017;SDS011;4054;52.666;4.770;2023-05-14T00:43:05;65.95;;;61.00;;
8017;SDS011;4054;52.666;4.770;2023-05-14T00:43:37;66.55;;;61.50;;
8017;SDS011;4054;52.666;4.770;2023-05-14T00:44:09;65.78;;;60.67;;
8017;SDS011;4054;52.666;4.770;2023-05-14T00:44:41;67.82;;;61.80;;
8017;SDS011;4054;52.666;4.770;2023-05-14T00:45:13;66.25;;;60.97;;
8017;SDS011;4054;52.666;4.770;2023-05-14T00:45:46;66.28;;;60.97;;
8017;SDS011;4054;52.666;4.770;2023-05-14T00:46:18;66.60;;;61.30;;
8017;SDS011;4054;52.666;4.770;2023-05-14T00:46:50;66.13;;;61.03;;
8017;SDS011;4054;52.666;4.770;2023-05-14T00:47:23;66.57;;;61.13;;
8017;SDS011;4054;52.666;4.770;2023-05-14T00:47:55;66.05;;;61.00;;
8017;SDS011;4054;52.666;4.770;2023-05-14T00:48:27;66.43;;;61.22;;
8017;SDS011;4054;52.666;4.770;2023-05-14T00:48:59;64.88;;;60.08;;
8017;SDS011;4054;52.666;4.770;2023-05-14T00:49:31;67.00;;;61.70;;
8017;SDS011;4054;52.666;4.770;2023-05-14T00:50:03;66.00;;;60.80;;
8017;SDS011;4054;52.666;4.770;2023-05-14T00:50:36;66.40;;;61.20;;
8017;SDS011;4054;52.666;4.770;2023-05-14T00:51:09;66.53;;;61.10;;
8017;SDS011;4054;52.666;4.770;2023-05-14T00:51:42;66.93;;;61.03;;
8017;SDS011;4054;52.666;4.770;2023-05-14T00:52:17;67.00;;;61.60;;
8017;SDS011;4054;52.666;4.770;2023-05-14T00:52:50;66.50;;;61.30;;
8017;SDS011;4054;52.666;4.770;2023-05-14T00:53:21;66.78;;;61.60;;
8017;SDS011;4054;52.666;4.770;2023-05-14T00:53:54;66.15;;;60.92;;
8017;SDS011;4054;52.666;4.770;2023-05-14T00:54:28;66.78;;;61.63;;
8017;SDS011;4054;52.666;4.770;2023-05-14T00:55:00;66.57;;;61.28;;
8017;SDS011;4054;52.666;4.770;2023-05-14T00:55:33;65.57;;;60.50;;
8017;SDS011;4054;52.666;4.770;2023-05-14T00:56:06;67.72;;;61.92;;
8017;SDS011;4054;52.666;4.770;2023-05-14T00:56:38;66.50;;;61.22;;
8017;SDS011;4054;52.666;4.770;2023-05-14T00:57:10;66.55;;;61.45;;
8017;SDS011;4054;52.666;4.770;2023-05-14T00:57:43;66.47;;;61.38;;
8017;SDS011;4054;52.666;4.770;2023-05-14T00:58:14;66.28;;;61.08;;
8017;SDS011;4054;52.666;4.770;2023-05-14T00:58:46;66.80;;;61.50;;
8017;SDS011;4054;52.666;4.770;2023-05-14T00:59:19;67.13;;;61.33;;
8017;SDS011;4054;52.666;4.770;2023-05-14T00:59:51;66.33;;;61.27;;
8017;SDS011;4054;52.666;4.770;2023-05-14T01:00:23;66.43;;;61.10;;
8017;SDS011;4054;52.666;4.770;2023-05-14T01:00:56;66.00;;;61.00;;
8017;SDS011;4054;52.666;4.770;2023-05-14T01:01:27;66.18;;;61.10;;
8017;SDS011;4054;52.666;4.770;2023-05-14T01:01:59;67.15;;;62.05;;
8017;SDS011;4054;52.666;4.770;2023-05-14T01:02:32;66.03;;;60.72;;
8017;SDS011;4054;52.666;4.770;2023-05-14T01:03:04;65.68;;;60.65;;
8017;SDS011;4054;52.666;4.770;2023-05-14T01:03:38;65.90;;;60.70;;
8017;SDS011;4054;52.666;4.770;2023-05-14T01:04:10;67.10;;;61.40;;
8017;SDS011;4054;52.666;4.770;2023-05-14T01:04:43;67.00;;;61.53;;
8017;SDS011;4054;52.666;4.770;2023-05-14T01:05:14;66.65;;;61.25;;
8017;SDS011;4054;52.666;4.770;2023-05-14T01:05:49;67.45;;;61.80;;
8017;SDS011;4054;52.666;4.770;2023-05-14T01:06:26;66.50;;;61.05;;
8017;SDS011;4054;52.666;4.770;2023-05-14T01:07:03;67.40;;;61.45;;
8017;SDS011;4054;52.666;4.770;2023-05-14T01:07:38;68.10;;;62.53;;
8017;SDS011;4054;52.666;4.770;2023-05-14T01:08:17;66.28;;;61.15;;
8017;SDS011;4054;52.666;4.770;2023-05-14T01:08:54;67.00;;;61.30;;
8017;SDS011;4054;52.666;4.770;2023-05-14T01:09:31;67.73;;;62.27;;
8017;SDS011;4054;52.666;4.770;2023-05-14T01:10:07;69.22;;;63.33;;
8017;SDS011;4054;52.666;4.770;2023-05-14T01:10:41;67.20;;;61.95;;
8017;SDS011;4054;52.666;4.770;2023-05-14T01:11:16;67.68;;;62.03;;
8017;SDS011;4054;52.666;4.770;2023-05-14T01:11:53;67.22;;;61.55;;
8017;SDS011;4054;52.666;4.770;2023-05-14T01:12:26;67.43;;;62.35;;
8017;SDS011;4054;52.666;4.770;2023-05-14T01:13:01;66.38;;;61.08;;
8017;SDS011;4054;52.666;4.770;2023-05-14T01:13:39;66.65;;;61.55;;
8017;SDS011;4054;52.666;4.770;2023-05-14T01:14:16;67.72;;;61.83;;
8017;SDS011;4054;52.666;4.770;2023-05-14T01:14:53;66.65;;;61.47;;
8017;SDS011;4054;52.666;4.770;2023-05-14T01:15:27;69.03;;;62.20;;
8017;SDS011;4054;52.666;4.770;2023-05-14T01:16:00;66.22;;;61.17;;
8017;SDS011;4054;52.666;4.770;2023-05-14T01:16:33;67.40;;;61.78;;
8017;SDS011;4054;52.666;4.770;2023-05-14T01:17:07;67.55;;;62.00;;
8017;SDS011;4054;52.666;4.770;2023-05-14T01:17:43;66.43;;;61.00;;
8017;SDS011;4054;52.666;4.770;2023-05-14T01:18:17;66.88;;;61.53;;
8017;SDS011;4054;52.666;4.770;2023-05-14T01:18:49;66.93;;;61.65;;
8017;SDS011;4054;52.666;4.770;2023-05-14T01:19:25;66.85;;;61.53;;
8017;SDS011;4054;52.666;4.770;2023-05-14T01:19:57;67.25;;;61.75;;
8017;SDS011;4054;52.666;4.770;2023-05-14T01:20:30;67.43;;;61.35;;
8017;SDS011;4054;52.666;4.770;2023-05-14T01:21:02;68.00;;;62.10;;
8017;SDS011;4054;52.666;4.770;2023-05-14T01:21:37;66.45;;;61.03;;
8017;SDS011;4054;52.666;4.770;2023-05-14T01:22:10;66.53;;;61.47;;
8017;SDS011;4054;52.666;4.770;2023-05-14T01:22:42;66.68;;;61.47;;
8017;SDS011;4054;52.666;4.770;2023-05-14T01:23:15;66.18;;;61.10;;
8017;SDS011;4054;52.666;4.770;2023-05-14T01:23:47;66.93;;;61.42;;
8017;SDS011;4054;52.666;4.770;2023-05-14T01:24:18;68.85;;;62.92;;
8017;SDS011;4054;52.666;4.770;2023-05-14T01:24:51;67.88;;;62.13;;
8017;SDS011;4054;52.666;4.770;2023-05-14T01:25:23;68.40;;;62.45;;
8017;SDS011;4054;52.666;4.770;2023-05-14T01:25:54;67.93;;;62.28;;
8017;SDS011;4054;52.666;4.770;2023-05-14T01:26:27;68.35;;;62.70;;
8017;SDS011;4054;52.666;4.770;2023-05-14T01:27:03;67.13;;;61.88;;
8017;SDS011;4054;52.666;4.770;2023-05-14T01:27:40;68.28;;;62.47;;
8017;SDS011;4054;52.666;4.770;2023-05-14T01:28:14;67.55;;;62.10;;
8017;SDS011;4054;52.666;4.770;2023-05-14T01:28:48;67.10;;;61.78;;
8017;SDS011;4054;52.666;4.770;2023-05-14T01:29:22;67.55;;;62.13;;
8017;SDS011;4054;52.666;4.770;2023-05-14T01:29:56;67.35;;;61.75;;
8017;SDS011;4054;52.666;4.770;2023-05-14T01:30:30;67.93;;;62.42;;
8017;SDS011;4054;52.666;4.770;2023-05-14T01:31:03;67.03;;;61.70;;
8017;SDS011;4054;52.666;4.770;2023-05-14T01:31:38;67.30;;;61.75;;
8017;SDS011;4054;52.666;4.770;2023-05-14T01:32:11;67.88;;;62.28;;
8017;SDS011;4054;52.666;4.770;2023-05-14T01:32:44;68.35;;;62.65;;
8017;SDS011;4054;52.666;4.770;2023-05-14T01:33:19;68.60;;;63.05;;
8017;SDS011;4054;52.666;4.770;2023-05-14T01:33:52;67.00;;;61.88;;
8017;SDS011;4054;52.666;4.770;2023-05-14T01:34:24;68.47;;;62.70;;
8017;SDS011;4054;52.666;4.770;2023-05-14T01:34:59;68.40;;;62.70;;
8017;SDS011;4054;52.666;4.770;2023-05-14T01:35:31;69.75;;;63.72;;
8017;SDS011;4054;52.666;4.770;2023-05-14T01:36:03;69.63;;;63.10;;
8017;SDS011;4054;52.666;4.770;2023-05-14T01:36:38;69.28;;;63.58;;
8017;SDS011;4054;52.666;4.770;2023-05-14T01:37:10;68.38;;;62.40;;
8017;SDS011;4054;52.666;4.770;2023-05-14T01:37:42;68.18;;;62.50;;
8017;SDS011;4054;52.666;4.770;2023-05-14T01:38:16;69.63;;;63.78;;
8017;SDS011;4054;52.666;4.770;2023-05-14T01:38:49;69.28;;;63.28;;
8017;SDS011;4054;52.666;4.770;2023-05-14T01:39:22;68.82;;;63.15;;
8017;SDS011;4054;52.666;4.770;2023-05-14T01:39:56;69.93;;;63.35;;
8017;SDS011;4054;52.666;4.770;2023-05-14T01:40:28;68.63;;;62.60;;
8017;SDS011;4054;52.666;4.770;2023-05-14T01:41:00;68.07;;;62.17;;
8017;SDS011;4054;52.666;4.770;2023-05-14T01:41:32;69.32;;;63.08;;
8017;SDS011;4054;52.666;4.770;2023-05-14T01:42:05;68.50;;;62.50;;
8017;SDS011;4054;52.666;4.770;2023-05-14T01:42:37;69.17;;;62.90;;
8017;SDS011;4054;52.666;4.770;2023-05-14T01:43:10;68.10;;;62.53;;
8017;SDS011;4054;52.666;4.770;2023-05-14T01:43:42;69.75;;;63.75;;
8017;SDS011;4054;52.666;4.770;2023-05-14T01:44:14;68.75;;;62.58;;
8017;SDS011;4054;52.666;4.770;2023-05-14T01:44:46;69.43;;;63.33;;
8017;SDS011;4054;52.666;4.770;2023-05-14T01:45:19;69.32;;;63.38;;
8017;SDS011;4054;52.666;4.770;2023-05-14T01:45:50;69.50;;;63.30;;
8017;SDS011;4054;52.666;4.770;2023-05-14T01:46:22;68.97;;;62.97;;
8017;SDS011;4054;52.666;4.770;2023-05-14T01:46:55;69.38;;;63.60;;
8017;SDS011;4054;52.666;4.770;2023-05-14T01:47:27;69.57;;;63.65;;
8017;SDS011;4054;52.666;4.770;2023-05-14T01:47:58;69.18;;;62.95;;
8017;SDS011;4054;52.666;4.770;2023-05-14T01:48:32;67.93;;;62.05;;
8017;SDS011;4054;52.666;4.770;2023-05-14T01:49:04;68.47;;;62.70;;
8017;SDS011;4054;52.666;4.770;2023-05-14T01:49:35;68.05;;;62.38;;
8017;SDS011;4054;52.666;4.770;2023-05-14T01:50:08;70.00;;;63.92;;
8017;SDS011;4054;52.666;4.770;2023-05-14T01:50:40;68.25;;;62.58;;
8017;SDS011;4054;52.666;4.770;2023-05-14T01:51:12;68.63;;;62.35;;
8017;SDS011;4054;52.666;4.770;2023-05-14T01:51:46;67.90;;;62.50;;
8017;SDS011;4054;52.666;4.770;2023-05-14T01:52:19;68.35;;;62.65;;
8017;SDS011;4054;52.666;4.770;2023-05-14T01:52:51;69.32;;;63.15;;
8017;SDS011;4054;52.666;4.770;2023-05-14T01:53:26;69.10;;;63.30;;
8017;SDS011;4054;52.666;4.770;2023-05-14T01:53:59;68.45;;;62.67;;
8017;SDS011;4054;52.666;4.770;2023-05-14T01:54:31;68.72;;;63.03;;
8017;SDS011;4054;52.666;4.770;2023-05-14T01:55:02;68.28;;;62.63;;
8017;SDS011;4054;52.666;4.770;2023-05-14T01:55:35;69.65;;;63.15;;
8017;SDS011;4054;52.666;4.770;2023-05-14T01:56:08;69.40;;;63.47;;
8017;SDS011;4054;52.666;4.770;2023-05-14T01:56:40;70.22;;;64.18;;
8017;SDS011;4054;52.666;4.770;2023-05-14T01:57:12;70.45;;;64.10;;
8017;SDS011;4054;52.666;4.770;2023-05-14T01:57:43;69.60;;;63.53;;
8017;SDS011;4054;52.666;4.770;2023-05-14T01:58:16;70.70;;;64.47;;
8017;SDS011;4054;52.666;4.770;2023-05-14T01:58:48;68.60;;;62.92;;
8017;SDS011;4054;52.666;4.770;2023-05-14T01:59:20;68.88;;;63.15;;
8017;SDS011;4054;52.666;4.770;2023-05-14T01:59:52;68.88;;;62.78;;
8017;SDS011;4054;52.666;4.770;2023-05-14T02:00:24;68.95;;;62.67;;
8017;SDS011;4054;52.666;4.770;2023-05-14T02:00:56;69.18;;;63.17;;
8017;SDS011;4054;52.666;4.770;2023-05-14T02:01:29;69.55;;;63.42;;
8017;SDS011;4054;52.666;4.770;2023-05-14T02:02:01;70.10;;;64.10;;
8017;SDS011;4054;52.666;4.770;2023-05-14T02:02:32;70.10;;;64.20;;
8017;SDS011;4054;52.666;4.770;2023-05-14T02:03:05;70.60;;;64.28;;
8017;SDS011;4054;52.666;4.770;2023-05-14T02:03:37;70.20;;;64.15;;
8017;SDS011;4054;52.666;4.770;2023-05-14T02:04:09;70.03;;;63.53;;
8017;SDS011;4054;52.666;4.770;2023-05-14T02:04:45;69.07;;;63.22;;
8017;SDS011;4054;52.666;4.770;2023-05-14T02:05:17;69.28;;;63.08;;
8017;SDS011;4054;52.666;4.770;2023-05-14T02:05:49;70.43;;;63.97;;
8017;SDS011;4054;52.666;4.770;2023-05-14T02:06:21;68.90;;;63.13;;
8017;SDS011;4054;52.666;4.770;2023-05-14T02:06:54;69.88;;;63.63;;
8017;SDS011;4054;52.666;4.770;2023-05-14T02:07:28;71.05;;;64.60;;
8017;SDS011;4054;52.666;4.770;2023-05-14T02:08:00;70.15;;;64.22;;
8017;SDS011;4054;52.666;4.770;2023-05-14T02:08:32;68.60;;;62.67;;
8017;SDS011;4054;52.666;4.770;2023-05-14T02:09:04;71.53;;;64.57;;
8017;SDS011;4054;52.666;4.770;2023-05-14T02:09:36;70.32;;;63.83;;
8017;SDS011;4054;52.666;4.770;2023-05-14T02:10:09;71.30;;;64.93;;
8017;SDS011;4054;52.666;4.770;2023-05-14T02:10:41;70.50;;;63.88;;
8017;SDS011;4054;52.666;4.770;2023-05-14T02:11:14;69.95;;;63.88;;
8017;SDS011;4054;52.666;4.770;2023-05-14T02:11:46;71.55;;;65.25;;
8017;SDS011;4054;52.666;4.770;2023-05-14T02:12:18;70.70;;;64.55;;
8017;SDS011;4054;52.666;4.770;2023-05-14T02:12:50;70.32;;;63.90;;
8017;SDS011;4054;52.666;4.770;2023-05-14T02:13:22;69.53;;;63.23;;
8017;SDS011;4054;52.666;4.770;2023-05-14T02:13:53;71.32;;;64.60;;
8017;SDS011;4054;52.666;4.770;2023-05-14T02:14:26;71.18;;;64.93;;
8017;SDS011;4054;52.666;4.770;2023-05-14T02:14:58;71.23;;;64.77;;
8017;SDS011;4054;52.666;4.770;2023-05-14T02:15:31;70.05;;;63.95;;
8017;SDS011;4054;52.666;4.770;2023-05-14T02:16:03;69.78;;;63.72;;
8017;SDS011;4054;52.666;4.770;2023-05-14T02:16:36;69.18;;;63.28;;
8017;SDS011;4054;52.666;4.770;2023-05-14T02:17:08;71.90;;;65.28;;
8017;SDS011;4054;52.666;4.770;2023-05-14T02:17:39;68.50;;;62.72;;
8017;SDS011;4054;52.666;4.770;2023-05-14T02:18:13;70.95;;;64.53;;
8017;SDS011;4054;52.666;4.770;2023-05-14T02:18:46;70.78;;;64.30;;
8017;SDS011;4054;52.666;4.770;2023-05-14T02:19:18;68.55;;;62.60;;
8017;SDS011;4054;52.666;4.770;2023-05-14T02:19:50;71.43;;;65.00;;
8017;SDS011;4054;52.666;4.770;2023-05-14T02:20:23;70.20;;;64.03;;
8017;SDS011;4054;52.666;4.770;2023-05-14T02:20:55;71.18;;;64.25;;
8017;SDS011;4054;52.666;4.770;2023-05-14T02:21:27;70.75;;;64.40;;
8017;SDS011;4054;52.666;4.770;2023-05-14T02:22:01;70.30;;;63.67;;
8017;SDS011;4054;52.666;4.770;2023-05-14T02:22:33;70.90;;;64.25;;
8017;SDS011;4054;52.666;4.770;2023-05-14T02:23:05;71.20;;;64.93;;
8017;SDS011;4054;52.666;4.770;2023-05-14T02:23:37;72.72;;;65.47;;
8017;SDS011;4054;52.666;4.770;2023-05-14T02:24:12;70.15;;;63.70;;
8017;SDS011;4054;52.666;4.770;2023-05-14T02:24:45;71.10;;;64.88;;
8017;SDS011;4054;52.666;4.770;2023-05-14T02:25:17;71.75;;;65.13;;
8017;SDS011;4054;52.666;4.770;2023-05-14T02:25:49;72.35;;;65.80;;
8017;SDS011;4054;52.666;4.770;2023-05-14T02:26:22;70.68;;;64.38;;
8017;SDS011;4054;52.666;4.770;2023-05-14T02:26:53;71.95;;;65.45;;
8017;SDS011;4054;52.666;4.770;2023-05-14T02:27:26;71.40;;;64.88;;
8017;SDS011;4054;52.666;4.770;2023-05-14T02:27:59;72.57;;;65.70;;
8017;SDS011;4054;52.666;4.770;2023-05-14T02:28:31;71.38;;;64.82;;
8017;SDS011;4054;52.666;4.770;2023-05-14T02:29:03;72.97;;;66.45;;
8017;SDS011;4054;52.666;4.770;2023-05-14T02:29:36;72.15;;;65.47;;
8017;SDS011;4054;52.666;4.770;2023-05-14T02:30:09;72.82;;;66.25;;
8017;SDS011;4054;52.666;4.770;2023-05-14T02:30:42;73.68;;;66.68;;
8017;SDS011;4054;52.666;4.770;2023-05-14T02:31:15;73.05;;;66.78;;
8017;SDS011;4054;52.666;4.770;2023-05-14T02:31:49;71.65;;;65.20;;
8017;SDS011;4054;52.666;4.770;2023-05-14T02:32:21;72.20;;;65.03;;
8017;SDS011;4054;52.666;4.770;2023-05-14T02:32:55;71.07;;;64.70;;
8017;SDS011;4054;52.666;4.770;2023-05-14T02:33:27;71.80;;;65.30;;
8017;SDS011;4054;52.666;4.770;2023-05-14T02:34:00;71.90;;;65.20;;
8017;SDS011;4054;52.666;4.770;2023-05-14T02:34:33;72.18;;;65.60;;
8017;SDS011;4054;52.666;4.770;2023-05-14T02:35:05;72.13;;;65.72;;
8017;SDS011;4054;52.666;4.770;2023-05-14T02:35:42;71.95;;;65.05;;
8017;SDS011;4054;52.666;4.770;2023-05-14T02:36:17;72.53;;;65.97;;
8017;SDS011;4054;52.666;4.770;2023-05-14T02:36:48;72.10;;;65.70;;
8017;SDS011;4054;52.666;4.770;2023-05-14T02:37:22;72.10;;;65.40;;
8017;SDS011;4054;52.666;4.770;2023-05-14T02:37:55;74.03;;;66.93;;
8017;SDS011;4054;52.666;4.770;2023-05-14T02:38:27;73.68;;;66.90;;
8017;SDS011;4054;52.666;4.770;2023-05-14T02:39:00;73.78;;;66.65;;
8017;SDS011;4054;52.666;4.770;2023-05-14T02:39:33;73.38;;;66.15;;
8017;SDS011;4054;52.666;4.770;2023-05-14T02:40:05;73.03;;;66.07;;
8017;SDS011;4054;52.666;4.770;2023-05-14T02:40:38;72.43;;;65.73;;
8017;SDS011;4054;52.666;4.770;2023-05-14T02:41:11;71.40;;;64.97;;
8017;SDS011;4054;52.666;4.770;2023-05-14T02:41:42;74.45;;;66.85;;
8017;SDS011;4054;52.666;4.770;2023-05-14T02:42:14;74.88;;;67.80;;
8017;SDS011;4054;52.666;4.770;2023-05-14T02:42:47;71.95;;;65.47;;
8017;SDS011;4054;52.666;4.770;2023-05-14T02:43:19;74.32;;;66.93;;
8017;SDS011;4054;52.666;4.770;2023-05-14T02:43:51;72.32;;;65.45;;
8017;SDS011;4054;52.666;4.770;2023-05-14T02:44:24;74.13;;;67.10;;
8017;SDS011;4054;52.666;4.770;2023-05-14T02:44:56;73.45;;;66.50;;
8017;SDS011;4054;52.666;4.770;2023-05-14T02:45:28;72.28;;;65.72;;
8017;SDS011;4054;52.666;4.770;2023-05-14T02:46:00;74.53;;;67.15;;
8017;SDS011;4054;52.666;4.770;2023-05-14T02:46:34;70.82;;;64.47;;
8017;SDS011;4054;52.666;4.770;2023-05-14T02:47:06;73.20;;;66.40;;
8017;SDS011;4054;52.666;4.770;2023-05-14T02:47:38;72.13;;;65.50;;
8017;SDS011;4054;52.666;4.770;2023-05-14T02:48:11;73.43;;;66.72;;
8017;SDS011;4054;52.666;4.770;2023-05-14T02:48:43;72.63;;;65.90;;
8017;SDS011;4054;52.666;4.770;2023-05-14T02:49:15;73.43;;;66.57;;
8017;SDS011;4054;52.666;4.770;2023-05-14T02:49:48;72.95;;;66.32;;
8017;SDS011;4054;52.666;4.770;2023-05-14T02:50:20;73.10;;;66.07;;
8017;SDS011;4054;52.666;4.770;2023-05-14T02:50:52;72.93;;;66.25;;
8017;SDS011;4054;52.666;4.770;2023-05-14T02:51:25;73.53;;;66.85;;
8017;SDS011;4054;52.666;4.770;2023-05-14T02:51:57;72.70;;;65.75;;
8017;SDS011;4054;52.666;4.770;2023-05-14T02:52:32;74.85;;;67.43;;
8017;SDS011;4054;52.666;4.770;2023-05-14T02:53:05;74.10;;;67.07;;
8017;SDS011;4054;52.666;4.770;2023-05-14T02:53:38;71.80;;;65.55;;
8017;SDS011;4054;52.666;4.770;2023-05-14T02:54:11;72.38;;;65.32;;
8017;SDS011;4054;52.666;4.770;2023-05-14T02:54:43;72.05;;;65.25;;
8017;SDS011;4054;52.666;4.770;2023-05-14T02:55:15;72.30;;;65.45;;
8017;SDS011;4054;52.666;4.770;2023-05-14T02:55:48;74.55;;;67.10;;
8017;SDS011;4054;52.666;4.770;2023-05-14T02:56:20;71.47;;;65.28;;
8017;SDS011;4054;52.666;4.770;2023-05-14T02:56:52;72.10;;;65.55;;
8017;SDS011;4054;52.666;4.770;2023-05-14T02:57:25;71.72;;;65.32;;
8017;SDS011;4054;52.666;4.770;2023-05-14T02:57:57;71.57;;;65.35;;
8017;SDS011;4054;52.666;4.770;2023-05-14T02:58:29;71.93;;;65.35;;
8017;SDS011;4054;52.666;4.770;2023-05-14T02:59:02;72.38;;;65.47;;
8017;SDS011;4054;52.666;4.770;2023-05-14T02:59:35;71.88;;;65.65;;
8017;SDS011;4054;52.666;4.770;2023-05-14T03:00:08;73.63;;;66.72;;
8017;SDS011;4054;52.666;4.770;2023-05-14T03:00:42;72.45;;;65.85;;
8017;SDS011;4054;52.666;4.770;2023-05-14T03:01:14;72.18;;;65.47;;
8017;SDS011;4054;52.666;4.770;2023-05-14T03:01:49;72.25;;;64.93;;
8017;SDS011;4054;52.666;4.770;2023-05-14T03:02:23;71.72;;;65.47;;
8017;SDS011;4054;52.666;4.770;2023-05-14T03:02:56;71.72;;;65.53;;
8017;SDS011;4054;52.666;4.770;2023-05-14T03:03:28;72.30;;;65.95;;
8017;SDS011;4054;52.666;4.770;2023-05-14T03:04:02;71.00;;;64.35;;
8017;SDS011;4054;52.666;4.770;2023-05-14T03:04:38;71.35;;;65.15;;
8017;SDS011;4054;52.666;4.770;2023-05-14T03:05:10;71.45;;;64.90;;
8017;SDS011;4054;52.666;4.770;2023-05-14T03:05:43;71.20;;;65.07;;
8017;SDS011;4054;52.666;4.770;2023-05-14T03:06:15;71.40;;;65.03;;
8017;SDS011;4054;52.666;4.770;2023-05-14T03:06:47;70.60;;;64.43;;
8017;SDS011;4054;52.666;4.770;2023-05-14T03:07:19;72.70;;;66.25;;
8017;SDS011;4054;52.666;4.770;2023-05-14T03:07:54;72.20;;;65.68;;
8017;SDS011;4054;52.666;4.770;2023-05-14T03:08:26;71.45;;;65.00;;
8017;SDS011;4054;52.666;4.770;2023-05-14T03:08:58;71.15;;;64.50;;
8017;SDS011;4054;52.666;4.770;2023-05-14T03:09:30;72.55;;;66.15;;
8017;SDS011;4054;52.666;4.770;2023-05-14T03:10:03;71.05;;;64.88;;
8017;SDS011;4054;52.666;4.770;2023-05-14T03:10:35;71.53;;;65.10;;
8017;SDS011;4054;52.666;4.770;2023-05-14T03:11:06;71.45;;;64.90;;
8017;SDS011;4054;52.666;4.770;2023-05-14T03:11:39;70.18;;;64.15;;
8017;SDS011;4054;52.666;4.770;2023-05-14T03:12:11;70.82;;;64.57;;
8017;SDS011;4054;52.666;4.770;2023-05-14T03:12:44;71.35;;;64.47;;
8017;SDS011;4054;52.666;4.770;2023-05-14T03:13:17;70.65;;;64.70;;
8017;SDS011;4054;52.666;4.770;2023-05-14T03:13:51;69.90;;;63.75;;
8017;SDS011;4054;52.666;4.770;2023-05-14T03:14:25;71.05;;;64.70;;
8017;SDS011;4054;52.666;4.770;2023-05-14T03:14:56;70.65;;;64.28;;
8017;SDS011;4054;52.666;4.770;2023-05-14T03:15:28;72.22;;;65.80;;
8017;SDS011;4054;52.666;4.770;2023-05-14T03:16:01;69.70;;;63.78;;
8017;SDS011;4054;52.666;4.770;2023-05-14T03:16:33;69.38;;;63.28;;
8017;SDS011;4054;52.666;4.770;2023-05-14T03:17:04;69.97;;;64.07;;